Aviation Digital Data Service (ADDS)

Output produced by METARs form (0642 UTC 24 March 2019)
found at http://www.aviationweather.gov/metar/data/
 
VLLB 240600Z 27006KT 4000 FU SCT020 BKN080 32/20 Q1010 NOSIG
TAF VLLB 240500Z 2406/2506 04004KT 5000 FU SCT020 BKN080 
     TEMPO 2412/2417 3000 BR SCT017 SCT060
       
VLPS 240600Z 18002KT 5000 HZ FEW020 SCT050 33/20 Q1011 NOSIG
TAF VLPS 240500Z 2406/2506 18006KT 5000 HZ SCT023 BKN050
       
VLSK 240600Z 12004KT 7000 SCT020 SCT100 32/26 Q1011 NOSIG
TAF VLSK 240500Z 2406/2506 09004KT 7000 SCT020 SCT100 
     TEMPO 2412/2417 3000 TS BR FEW027CB SCT040 BKN100
       
VLVT 240630Z 12004KT 8000 FEW020 BKN050 32/22 Q1010 NOSIG
TAF VLVT 240500Z 2406/2506 14008KT 7000 FEW020 BKN050 SCT100 
     TEMPO 2412/2417 3000 TS BR FEW030CB BKN050